createdAt,value
2022-10-02T00:06:48.989Z,1009.65
2022-10-02T00:07:48.934Z,1009.65
2022-10-02T00:08:48.893Z,1009.63
2022-10-02T00:09:48.853Z,1009.67
2022-10-02T00:10:48.818Z,1009.66
2022-10-02T00:11:48.771Z,1009.70
2022-10-02T00:12:48.742Z,1009.73
2022-10-02T00:13:48.692Z,1009.68
2022-10-02T00:14:48.653Z,1009.67
2022-10-02T00:15:48.610Z,1009.69
2022-10-02T00:16:48.679Z,1009.72
2022-10-02T00:17:48.535Z,1009.70
2022-10-02T00:18:48.485Z,1009.68
2022-10-02T00:19:48.444Z,1009.71
2022-10-02T00:20:48.422Z,1009.70
2022-10-02T00:21:48.380Z,1009.70
2022-10-02T00:22:48.335Z,1009.72
2022-10-02T00:23:48.280Z,1009.71
2022-10-02T00:24:48.240Z,1009.74
2022-10-02T00:25:48.199Z,1009.70
2022-10-02T00:26:48.157Z,1009.73
2022-10-02T00:27:48.171Z,1009.75
2022-10-02T00:28:48.093Z,1009.74
2022-10-02T00:29:48.039Z,1009.71
2022-10-02T00:30:49.211Z,1009.70
2022-10-02T00:31:48.005Z,1009.73
2022-10-02T00:32:47.939Z,1009.72
2022-10-02T00:33:47.875Z,1009.73
2022-10-02T00:34:47.832Z,1009.75
2022-10-02T00:35:47.805Z,1009.71
2022-10-02T00:36:47.796Z,1009.76
2022-10-02T00:37:47.751Z,1009.75
2022-10-02T00:38:47.705Z,1009.79
2022-10-02T00:39:47.628Z,1009.80
2022-10-02T00:40:49.116Z,1009.78
2022-10-02T00:41:48.124Z,1009.79
2022-10-02T00:42:50.878Z,1009.80
2022-10-02T00:43:48.200Z,1009.80
2022-10-02T00:44:48.234Z,1009.85
2022-10-02T00:45:48.146Z,1009.81
2022-10-02T00:46:49.614Z,1009.80
2022-10-02T00:47:48.402Z,1009.85
2022-10-02T00:48:49.616Z,1009.84
2022-10-02T00:49:47.339Z,1009.87
2022-10-02T00:50:49.118Z,1009.85
2022-10-02T00:51:47.244Z,1009.82
2022-10-02T00:52:47.649Z,1009.87
2022-10-02T00:53:47.614Z,1009.87
2022-10-02T00:54:47.715Z,1009.88
2022-10-02T00:55:46.998Z,1009.85
2022-10-02T00:56:46.976Z,1009.86
2022-10-02T00:57:46.937Z,1009.86
2022-10-02T00:58:46.920Z,1009.83
2022-10-02T00:59:46.864Z,1009.86
2022-10-02T01:00:46.847Z,1009.84
2022-10-02T01:01:46.830Z,1009.87
2022-10-02T01:02:46.732Z,1009.85
2022-10-02T01:03:46.670Z,1009.84
2022-10-02T01:04:46.641Z,1009.82
2022-10-02T01:05:46.658Z,1009.85
2022-10-02T01:06:46.597Z,1009.84
2022-10-02T01:07:46.563Z,1009.90
2022-10-02T01:08:46.504Z,1009.91
2022-10-02T01:09:47.121Z,1009.91
2022-10-02T01:10:46.530Z,1009.91
2022-10-02T01:11:46.397Z,1009.94
2022-10-02T01:12:46.403Z,1009.90
2022-10-02T01:13:46.317Z,1009.91
2022-10-02T01:14:46.296Z,1009.97
2022-10-02T01:15:46.289Z,1009.95
2022-10-02T01:16:46.808Z,1009.99
2022-10-02T01:17:46.192Z,1009.96
2022-10-02T01:18:46.148Z,1009.96
2022-10-02T01:19:46.060Z,1009.94
2022-10-02T01:20:46.297Z,1009.89
2022-10-02T01:21:46.029Z,1009.95
2022-10-02T01:22:45.984Z,1009.93
2022-10-02T01:23:46.078Z,1009.90
2022-10-02T01:24:46.630Z,1009.87
2022-10-02T01:25:45.864Z,1009.91
2022-10-02T01:26:45.851Z,1009.95
2022-10-02T01:27:46.660Z,1009.95
2022-10-02T01:28:46.186Z,1009.97
2022-10-02T01:29:46.125Z,1009.96
2022-10-02T01:30:45.708Z,1009.98
2022-10-02T01:31:46.232Z,1009.99
2022-10-02T01:32:47.144Z,1009.99
2022-10-02T01:33:46.630Z,1009.99
2022-10-02T01:34:45.530Z,1009.99
2022-10-02T01:35:46.127Z,1010.01
2022-10-02T01:36:46.285Z,1009.99
2022-10-02T01:37:46.294Z,1010.02
2022-10-02T01:38:46.278Z,1009.98
2022-10-02T01:39:46.164Z,1010.01
2022-10-02T01:40:46.155Z,1009.98
2022-10-02T01:41:46.629Z,1010.05
2022-10-02T01:42:46.152Z,1010.04
2022-10-02T01:43:45.226Z,1010.05
2022-10-02T01:44:45.090Z,1010.03
2022-10-02T01:45:45.690Z,1010.05
2022-10-02T01:46:46.647Z,1010.01
2022-10-02T01:47:45.061Z,1010.07
2022-10-02T01:48:44.918Z,1010.05
2022-10-02T01:49:44.897Z,1010.07
2022-10-02T01:50:44.834Z,1010.09
2022-10-02T01:51:44.799Z,1010.07
2022-10-02T01:52:44.779Z,1010.05
2022-10-02T01:53:44.752Z,1010.05
2022-10-02T01:54:44.688Z,1010.03
2022-10-02T01:55:45.276Z,1010.03
2022-10-02T01:56:44.551Z,1010.08
2022-10-02T01:57:44.589Z,1010.06
2022-10-02T01:58:53.718Z,1010.08
2022-10-02T01:59:44.406Z,1010.12
2022-10-02T02:00:44.406Z,1010.07
2022-10-02T02:01:44.388Z,1010.10
2022-10-02T02:02:44.284Z,1010.08
2022-10-02T02:03:44.255Z,1010.08
2022-10-02T02:04:44.205Z,1010.10
2022-10-02T02:05:44.167Z,1010.09
2022-10-02T02:06:44.122Z,1010.06
2022-10-02T02:07:44.082Z,1010.09
2022-10-02T02:08:44.042Z,1010.08
2022-10-02T02:09:44.015Z,1010.09
2022-10-02T02:10:43.960Z,1010.04
2022-10-02T02:11:43.923Z,1010.08
2022-10-02T02:12:43.880Z,1010.04
2022-10-02T02:13:43.843Z,1010.11
2022-10-02T02:14:43.805Z,1010.08
2022-10-02T02:15:43.772Z,1010.11
2022-10-02T02:16:43.831Z,1010.07
2022-10-02T02:17:43.683Z,1010.05
2022-10-02T02:18:43.651Z,1010.02
2022-10-02T02:19:43.602Z,1010.07
2022-10-02T02:20:43.562Z,1010.08
2022-10-02T02:21:43.541Z,1010.05
2022-10-02T02:22:43.504Z,1010.05
2022-10-02T02:23:43.470Z,1010.04
2022-10-02T02:24:43.406Z,1010.08
2022-10-02T02:25:43.365Z,1010.05
2022-10-02T02:26:43.327Z,1010.09
2022-10-02T02:27:43.298Z,1010.05
2022-10-02T02:28:44.214Z,1010.00
2022-10-02T02:29:43.204Z,1009.99
2022-10-02T02:30:43.737Z,1009.99
2022-10-02T02:31:43.142Z,1010.04
2022-10-02T02:32:43.097Z,1010.04
2022-10-02T02:33:44.175Z,1009.98
2022-10-02T02:34:43.008Z,1009.98
2022-10-02T02:35:42.968Z,1009.97
2022-10-02T02:36:42.970Z,1009.94
2022-10-02T02:37:42.886Z,1009.95
2022-10-02T02:38:42.858Z,1009.93
2022-10-02T02:39:43.669Z,1009.96
2022-10-02T02:40:42.766Z,1010.00
2022-10-02T02:41:42.727Z,1010.00
2022-10-02T02:42:42.707Z,1009.98
2022-10-02T02:43:42.647Z,1009.97
2022-10-02T02:44:42.621Z,1009.98
2022-10-02T02:45:42.583Z,1009.99
2022-10-02T02:46:42.529Z,1009.99
2022-10-02T02:47:42.489Z,1010.01
2022-10-02T02:48:42.449Z,1009.98
2022-10-02T02:49:42.411Z,1009.97
2022-10-02T02:50:42.383Z,1009.99
2022-10-02T02:51:42.330Z,1009.96
2022-10-02T02:52:42.292Z,1009.95
2022-10-02T02:53:42.253Z,1010.00
2022-10-02T02:54:42.212Z,1010.04
2022-10-02T02:55:45.034Z,1010.05
2022-10-02T02:56:42.144Z,1010.09
2022-10-02T02:57:42.094Z,1010.12
2022-10-02T02:58:42.053Z,1010.16
2022-10-02T02:59:42.013Z,1010.18
2022-10-02T03:00:41.999Z,1010.19
2022-10-02T03:01:41.970Z,1010.15
2022-10-02T03:02:41.911Z,1010.12
2022-10-02T03:03:41.855Z,1010.15
2022-10-02T03:04:41.816Z,1010.16
2022-10-02T03:05:41.779Z,1010.15
2022-10-02T03:06:41.737Z,1010.11
2022-10-02T03:07:41.699Z,1010.07
2022-10-02T03:08:41.670Z,1010.06
2022-10-02T03:09:41.619Z,1010.09
2022-10-02T03:10:41.579Z,1010.13
2022-10-02T03:11:41.540Z,1010.14
2022-10-02T03:12:41.500Z,1010.17
2022-10-02T03:13:41.461Z,1010.18
2022-10-02T03:14:41.433Z,1010.14
2022-10-02T03:15:41.447Z,1010.10
2022-10-02T03:16:41.343Z,1010.06
2022-10-02T03:17:41.304Z,1010.09
2022-10-02T03:18:41.263Z,1010.05
2022-10-02T03:19:41.235Z,1010.04
2022-10-02T03:20:41.193Z,1009.98
2022-10-02T03:21:41.145Z,1010.03
2022-10-02T03:22:41.107Z,1010.01
2022-10-02T03:23:41.067Z,1010.00
2022-10-02T03:24:41.025Z,1010.01
2022-10-02T03:25:41.001Z,1009.99
2022-10-02T03:26:40.951Z,1010.01
2022-10-02T03:27:40.908Z,1010.01
2022-10-02T03:28:55.423Z,1009.98
2022-10-02T03:29:40.831Z,1009.96
2022-10-02T03:30:40.800Z,1009.95
2022-10-02T03:31:40.818Z,1010.00
2022-10-02T03:32:40.711Z,1010.03
2022-10-02T03:33:40.673Z,1010.10
2022-10-02T03:34:40.632Z,1010.07
2022-10-02T03:35:40.608Z,1010.11
2022-10-02T03:36:40.553Z,1010.13
2022-10-02T03:37:40.518Z,1010.17
2022-10-02T03:38:40.480Z,1010.15
2022-10-02T03:39:40.434Z,1010.15
2022-10-02T03:40:40.395Z,1010.19
2022-10-02T03:41:40.373Z,1010.21
2022-10-02T03:42:40.317Z,1010.19
2022-10-02T03:43:40.279Z,1010.17
2022-10-02T03:44:40.238Z,1010.15
2022-10-02T03:45:50.848Z,1010.16
2022-10-02T03:46:40.539Z,1010.15
2022-10-02T03:47:40.137Z,1010.22
2022-10-02T03:48:40.083Z,1010.20
2022-10-02T03:49:40.049Z,1010.28
2022-10-02T03:50:40.010Z,1010.28
2022-10-02T03:51:39.968Z,1010.25
2022-10-02T03:52:39.928Z,1010.23
2022-10-02T03:53:39.894Z,1010.14
2022-10-02T03:54:39.847Z,1010.16
2022-10-02T03:55:39.805Z,1010.25
2022-10-02T03:56:39.920Z,1010.24
2022-10-02T03:57:39.730Z,1010.16
2022-10-02T03:58:39.698Z,1010.25
2022-10-02T03:59:39.653Z,1010.16
2022-10-02T04:00:39.610Z,1010.20
2022-10-02T04:01:39.645Z,1010.11
2022-10-02T04:02:39.528Z,1010.11
2022-10-02T04:03:39.593Z,1010.09
2022-10-02T04:04:39.452Z,1010.09
2022-10-02T04:05:39.410Z,1010.10
2022-10-02T04:06:39.553Z,1010.07
2022-10-02T04:07:39.330Z,1010.07
2022-10-02T04:08:39.291Z,1010.06
2022-10-02T04:09:39.264Z,1010.03
2022-10-02T04:10:39.216Z,1010.03
2022-10-02T04:11:39.173Z,1010.01
2022-10-02T04:12:39.133Z,1010.02
2022-10-02T04:13:39.092Z,1010.08
2022-10-02T04:14:39.067Z,1010.12
2022-10-02T04:15:39.015Z,1010.14
2022-10-02T04:16:39.413Z,1010.12
2022-10-02T04:17:38.935Z,1010.07
2022-10-02T04:18:38.896Z,1010.10
2022-10-02T04:19:38.866Z,1010.16
2022-10-02T04:20:38.820Z,1010.14
2022-10-02T04:21:38.781Z,1010.16
2022-10-02T04:22:38.737Z,1010.18
2022-10-02T04:23:38.701Z,1010.20
2022-10-02T04:24:38.657Z,1010.21
2022-10-02T04:25:39.822Z,1010.23
2022-10-02T04:26:38.876Z,1010.27
2022-10-02T04:27:38.538Z,1010.32
2022-10-02T04:28:38.501Z,1010.32
2022-10-02T04:29:39.611Z,1010.33
2022-10-02T04:30:38.433Z,1010.29
2022-10-02T04:31:38.421Z,1010.29
2022-10-02T04:32:38.350Z,1010.31
2022-10-02T04:33:38.574Z,1010.38
2022-10-02T04:34:38.263Z,1010.39
2022-10-02T04:35:38.236Z,1010.48
2022-10-02T04:36:38.440Z,1010.55
2022-10-02T04:37:38.145Z,1010.24
2022-10-02T04:38:38.105Z,1010.27
2022-10-02T04:39:38.066Z,1010.24
2022-10-02T04:40:38.042Z,1010.20
2022-10-02T04:41:37.985Z,1010.20
2022-10-02T04:42:37.959Z,1010.28
2022-10-02T04:43:37.911Z,1010.23
2022-10-02T04:44:37.877Z,1010.23
2022-10-02T04:45:37.895Z,1010.21
2022-10-02T04:46:38.171Z,1010.30
2022-10-02T04:47:37.748Z,1010.30
2022-10-02T04:48:37.714Z,1010.30
2022-10-02T04:49:37.669Z,1010.32
2022-10-02T04:50:37.630Z,1010.36
2022-10-02T04:51:37.594Z,1010.30
2022-10-02T04:52:37.569Z,1010.26
2022-10-02T04:53:39.215Z,1010.27
2022-10-02T04:54:37.489Z,1010.33
2022-10-02T04:55:37.431Z,1010.33
2022-10-02T04:56:37.732Z,1010.41
2022-10-02T04:57:37.357Z,1010.36
2022-10-02T04:58:37.314Z,1010.34
2022-10-02T04:59:37.282Z,1010.27
2022-10-02T05:00:37.325Z,1010.25
2022-10-02T05:01:37.249Z,1010.22
2022-10-02T05:02:37.171Z,1010.23
2022-10-02T05:03:37.118Z,1010.26
2022-10-02T05:04:37.079Z,1010.24
2022-10-02T05:05:37.791Z,1010.25
2022-10-02T05:06:37.302Z,1010.24
2022-10-02T05:07:36.958Z,1010.28
2022-10-02T05:08:36.922Z,1010.31
2022-10-02T05:09:36.874Z,1010.32
2022-10-02T05:10:36.834Z,1010.37
2022-10-02T05:11:36.800Z,1010.39
2022-10-02T05:12:36.753Z,1010.40
2022-10-02T05:13:36.768Z,1010.42
2022-10-02T05:14:36.672Z,1010.45
2022-10-02T05:15:36.631Z,1010.47
2022-10-02T05:16:36.840Z,1010.51
2022-10-02T05:17:36.567Z,1010.52
2022-10-02T05:18:36.534Z,1010.48
2022-10-02T05:19:36.483Z,1010.51
2022-10-02T05:20:36.434Z,1010.45
2022-10-02T05:21:36.391Z,1010.46
2022-10-02T05:22:36.359Z,1010.44
2022-10-02T05:23:36.315Z,1010.39
2022-10-02T05:24:36.295Z,1010.41
2022-10-02T05:25:36.239Z,1010.39
2022-10-02T05:26:36.464Z,1010.39
2022-10-02T05:27:36.155Z,1010.41
2022-10-02T05:28:36.215Z,1010.43
2022-10-02T05:29:36.074Z,1010.43
2022-10-02T05:30:36.047Z,1010.41
2022-10-02T05:31:36.042Z,1010.42
2022-10-02T05:32:35.958Z,1010.38
2022-10-02T05:33:35.914Z,1010.41
2022-10-02T05:34:35.873Z,1010.39
2022-10-02T05:35:35.849Z,1010.37
2022-10-02T05:36:36.058Z,1010.42
2022-10-02T05:37:35.756Z,1010.42
2022-10-02T05:38:35.717Z,1010.40
2022-10-02T05:39:35.677Z,1010.43
2022-10-02T05:40:35.637Z,1010.42
2022-10-02T05:41:35.608Z,1010.44
2022-10-02T05:42:38.190Z,1010.44
2022-10-02T05:43:36.303Z,1010.40
2022-10-02T05:44:36.304Z,1010.39
2022-10-02T05:45:36.303Z,1010.36
2022-10-02T05:46:35.855Z,1010.32
2022-10-02T05:47:35.358Z,1010.35
2022-10-02T05:48:35.319Z,1010.39
2022-10-02T05:49:35.282Z,1010.43
2022-10-02T05:50:35.244Z,1010.45
2022-10-02T05:51:35.201Z,1010.44
2022-10-02T05:52:35.178Z,1010.43
2022-10-02T05:53:35.132Z,1010.45
2022-10-02T05:54:35.086Z,1010.42
2022-10-02T05:55:35.041Z,1010.44
2022-10-02T05:56:35.388Z,1010.44
2022-10-02T05:57:34.964Z,1010.39
2022-10-02T05:58:34.939Z,1010.45
2022-10-02T05:59:34.885Z,1010.51
2022-10-02T06:00:34.848Z,1010.52
2022-10-02T06:01:34.867Z,1010.48
2022-10-02T06:02:39.060Z,1010.52
2022-10-02T06:03:34.725Z,1010.55
2022-10-02T06:04:34.703Z,1010.53
2022-10-02T06:05:34.656Z,1010.56
2022-10-02T06:06:34.908Z,1010.60
2022-10-02T06:07:34.568Z,1010.61
2022-10-02T06:08:34.533Z,1010.63
2022-10-02T06:09:34.490Z,1010.67
2022-10-02T06:10:34.466Z,1010.73
2022-10-02T06:11:34.415Z,1010.73
2022-10-02T06:12:34.371Z,1010.78
2022-10-02T06:13:34.333Z,1010.81
2022-10-02T06:14:34.295Z,1010.83
2022-10-02T06:15:34.255Z,1010.86
2022-10-02T06:16:34.766Z,1010.85
2022-10-02T06:17:34.175Z,1010.85
2022-10-02T06:18:34.138Z,1010.90
2022-10-02T06:19:34.814Z,1010.90
2022-10-02T06:20:34.069Z,1010.92
2022-10-02T06:21:34.020Z,1010.85
2022-10-02T06:22:33.981Z,1010.88
2022-10-02T06:23:33.941Z,1010.84
2022-10-02T06:24:33.901Z,1010.87
2022-10-02T06:25:33.870Z,1010.89
2022-10-02T06:26:35.080Z,1010.85
2022-10-02T06:27:33.790Z,1010.90
2022-10-02T06:28:34.320Z,1010.89
2022-10-02T06:29:33.704Z,1010.91
2022-10-02T06:30:34.318Z,1010.90
2022-10-02T06:31:33.728Z,1010.90
2022-10-02T06:32:33.736Z,1010.91
2022-10-02T06:33:33.549Z,1010.94
2022-10-02T06:34:33.511Z,1010.92
2022-10-02T06:35:33.470Z,1010.99
2022-10-02T06:36:33.701Z,1010.99
2022-10-02T06:37:33.406Z,1011.00
2022-10-02T06:38:33.354Z,1010.96
2022-10-02T06:39:33.315Z,1011.00
2022-10-02T06:40:33.277Z,1011.06
2022-10-02T06:41:33.239Z,1011.06
2022-10-02T06:42:33.201Z,1011.10
2022-10-02T06:43:33.170Z,1011.08
2022-10-02T06:44:33.123Z,1011.08
2022-10-02T06:45:33.136Z,1011.10
2022-10-02T06:46:33.051Z,1011.09
2022-10-02T06:47:33.001Z,1011.10
2022-10-02T06:48:32.977Z,1011.09
2022-10-02T06:49:32.923Z,1011.12
2022-10-02T06:50:32.885Z,1011.09
2022-10-02T06:51:32.845Z,1011.07
2022-10-02T06:52:37.765Z,1011.12
2022-10-02T06:53:32.769Z,1011.08
2022-10-02T06:54:32.745Z,1011.08
2022-10-02T06:55:32.689Z,1011.10
2022-10-02T06:56:32.650Z,1011.13
2022-10-02T06:57:32.615Z,1011.13
2022-10-02T06:58:32.574Z,1011.19
2022-10-02T06:59:32.543Z,1011.15
2022-10-02T07:00:32.551Z,1011.16
2022-10-02T07:01:32.454Z,1011.21
2022-10-02T07:02:32.468Z,1011.20
2022-10-02T07:03:32.376Z,1011.19
2022-10-02T07:04:32.352Z,1011.22
2022-10-02T07:05:32.301Z,1011.21
2022-10-02T07:06:32.262Z,1011.19
2022-10-02T07:07:32.224Z,1011.23
2022-10-02T07:08:32.181Z,1011.19
2022-10-02T07:09:32.142Z,1011.20
2022-10-02T07:10:32.116Z,1011.26
2022-10-02T07:11:32.063Z,1011.25
2022-10-02T07:12:32.025Z,1011.32
2022-10-02T07:13:31.988Z,1011.27
2022-10-02T07:14:31.958Z,1011.27
2022-10-02T07:15:31.920Z,1011.29
2022-10-02T07:16:31.937Z,1011.29
2022-10-02T07:17:31.865Z,1011.35
2022-10-02T07:18:31.794Z,1011.34
2022-10-02T07:19:31.752Z,1011.34
2022-10-02T07:20:31.716Z,1011.34
2022-10-02T07:21:31.686Z,1011.32
2022-10-02T07:22:46.155Z,1011.31
2022-10-02T07:23:31.597Z,1011.30
2022-10-02T07:24:31.561Z,1011.28
2022-10-02T07:25:31.518Z,1011.28
2022-10-02T07:26:31.494Z,1011.33
2022-10-02T07:27:31.454Z,1011.40
2022-10-02T07:28:31.476Z,1011.44
2022-10-02T07:29:31.364Z,1011.45
2022-10-02T07:30:31.336Z,1011.45
2022-10-02T07:31:31.322Z,1011.47
2022-10-02T07:32:31.253Z,1011.45
2022-10-02T07:33:31.218Z,1011.45
2022-10-02T07:34:31.169Z,1011.43
2022-10-02T07:35:31.128Z,1011.46
2022-10-02T07:36:31.090Z,1011.44
2022-10-02T07:37:31.051Z,1011.48
2022-10-02T07:38:31.015Z,1011.50
2022-10-02T07:39:30.981Z,1011.44
2022-10-02T07:40:30.948Z,1011.45
2022-10-02T07:41:30.903Z,1011.49
2022-10-02T07:42:30.867Z,1011.45
2022-10-02T07:43:30.820Z,1011.48
2022-10-02T07:44:30.781Z,1011.45
2022-10-02T07:45:30.801Z,1011.43
2022-10-02T07:46:30.704Z,1011.44
2022-10-02T07:47:30.663Z,1011.49
2022-10-02T07:48:30.748Z,1011.54
2022-10-02T07:49:30.585Z,1011.51
2022-10-02T07:50:30.548Z,1011.51
2022-10-02T07:51:30.526Z,1011.56
2022-10-02T07:52:30.472Z,1011.52
2022-10-02T07:53:30.432Z,1011.57
2022-10-02T07:54:30.396Z,1011.51
2022-10-02T07:55:30.353Z,1011.53
2022-10-02T07:56:30.315Z,1011.60
2022-10-02T07:57:30.291Z,1011.61
2022-10-02T07:58:30.240Z,1011.58
2022-10-02T07:59:39.353Z,1011.64
2022-10-02T08:00:30.160Z,1011.65
2022-10-02T08:01:30.121Z,1011.65
2022-10-02T08:02:30.214Z,1011.69
2022-10-02T08:03:30.098Z,1011.77
2022-10-02T08:04:34.683Z,1011.76
2022-10-02T08:05:29.965Z,1011.77
2022-10-02T08:06:29.942Z,1011.78
2022-10-02T08:07:29.889Z,1011.76
2022-10-02T08:08:29.854Z,1011.80
2022-10-02T08:09:29.846Z,1011.82
2022-10-02T08:10:29.770Z,1011.84
2022-10-02T08:11:29.731Z,1011.80
2022-10-02T08:12:29.692Z,1011.83
2022-10-02T08:13:29.667Z,1011.75
2022-10-02T08:14:29.615Z,1011.81
2022-10-02T08:15:29.578Z,1011.84
2022-10-02T08:16:29.568Z,1011.82
2022-10-02T08:17:29.504Z,1011.87
2022-10-02T08:18:34.571Z,1011.83
2022-10-02T08:19:29.445Z,1011.86
2022-10-02T08:20:29.674Z,1011.92
2022-10-02T08:21:29.347Z,1011.89
2022-10-02T08:22:29.333Z,1011.90
2022-10-02T08:23:29.270Z,1011.93
2022-10-02T08:24:29.230Z,1011.93
2022-10-02T08:25:29.206Z,1011.95
2022-10-02T08:26:34.529Z,1011.96
2022-10-02T08:27:29.119Z,1011.96
2022-10-02T08:28:29.117Z,1011.99
2022-10-02T08:29:29.040Z,1011.96
2022-10-02T08:30:28.998Z,1011.98
2022-10-02T08:31:29.012Z,1011.99
2022-10-02T08:32:32.507Z,1011.99
2022-10-02T08:33:28.885Z,1011.98
2022-10-02T08:34:28.847Z,1011.97
2022-10-02T08:35:28.811Z,1011.92
2022-10-02T08:36:28.782Z,1011.96
2022-10-02T08:37:28.738Z,1012.00
2022-10-02T08:38:28.695Z,1011.98
2022-10-02T08:39:28.657Z,1011.95
2022-10-02T08:40:28.616Z,1012.00
2022-10-02T08:41:28.591Z,1011.98
2022-10-02T08:42:28.543Z,1011.99
2022-10-02T08:43:28.502Z,1011.99
2022-10-02T08:44:30.176Z,1011.97
2022-10-02T08:45:28.465Z,1011.99
2022-10-02T08:46:28.386Z,1011.97
2022-10-02T08:47:28.366Z,1011.98
2022-10-02T08:48:28.309Z,1012.03
2022-10-02T08:49:28.274Z,1012.07
2022-10-02T08:50:28.234Z,1012.07
2022-10-02T08:51:28.196Z,1012.10
2022-10-02T08:52:28.158Z,1012.16
2022-10-02T08:53:28.133Z,1012.11
2022-10-02T08:54:28.096Z,1012.11
2022-10-02T08:55:28.044Z,1012.13
2022-10-02T08:56:28.006Z,1012.14
2022-10-02T08:57:27.969Z,1012.14
2022-10-02T08:58:27.930Z,1012.15
2022-10-02T08:59:27.916Z,1012.17
2022-10-02T09:00:27.854Z,1012.17
2022-10-02T09:01:27.816Z,1012.23
2022-10-02T09:02:27.854Z,1012.21
2022-10-02T09:03:27.741Z,1012.24
2022-10-02T09:04:27.719Z,1012.18
2022-10-02T09:05:27.667Z,1012.19
2022-10-02T09:06:27.627Z,1012.23
2022-10-02T09:07:28.342Z,1012.25
2022-10-02T09:08:27.550Z,1012.24
2022-10-02T09:09:27.515Z,1012.26
2022-10-02T09:10:27.494Z,1012.26
2022-10-02T09:11:27.437Z,1012.32
2022-10-02T09:12:27.399Z,1012.28
2022-10-02T09:13:27.363Z,1012.27
2022-10-02T09:14:27.324Z,1012.37
2022-10-02T09:15:27.286Z,1012.31
2022-10-02T09:16:27.309Z,1012.34
2022-10-02T09:17:27.217Z,1012.30
2022-10-02T09:18:27.169Z,1012.33
2022-10-02T09:19:27.132Z,1012.34
2022-10-02T09:20:27.091Z,1012.32
2022-10-02T09:21:27.065Z,1012.39
2022-10-02T09:22:27.019Z,1012.40
2022-10-02T09:23:26.979Z,1012.40
2022-10-02T09:24:26.999Z,1012.39
2022-10-02T09:25:26.991Z,1012.39
2022-10-02T09:26:26.869Z,1012.41
2022-10-02T09:27:26.837Z,1012.49
2022-10-02T09:28:26.825Z,1012.44
2022-10-02T09:29:26.753Z,1012.44
2022-10-02T09:30:26.718Z,1012.46
2022-10-02T09:31:26.718Z,1012.43
2022-10-02T09:32:26.653Z,1012.39
2022-10-02T09:33:26.601Z,1012.40
2022-10-02T09:34:26.564Z,1012.51
2022-10-02T09:35:26.533Z,1012.36
2022-10-02T09:36:26.492Z,1012.50
2022-10-02T09:37:26.452Z,1012.47
2022-10-02T09:38:26.412Z,1012.49
2022-10-02T09:39:26.388Z,1012.50
2022-10-02T09:40:26.339Z,1012.55
2022-10-02T09:41:26.317Z,1012.56
2022-10-02T09:42:26.262Z,1012.57
2022-10-02T09:43:26.232Z,1012.54
2022-10-02T09:44:26.185Z,1012.55
2022-10-02T09:45:26.213Z,1012.56
2022-10-02T09:46:26.116Z,1012.55
2022-10-02T09:47:26.088Z,1012.56
2022-10-02T09:48:26.040Z,1012.58
2022-10-02T09:49:26.004Z,1012.59
2022-10-02T09:50:25.979Z,1012.62
2022-10-02T09:51:25.926Z,1012.63
2022-10-02T09:52:25.893Z,1012.63
2022-10-02T09:53:25.866Z,1012.71
2022-10-02T09:54:25.823Z,1012.73
2022-10-02T09:55:25.783Z,1012.64
2022-10-02T09:56:25.746Z,1012.68
2022-10-02T09:57:25.714Z,1012.63
2022-10-02T09:58:25.687Z,1012.58
2022-10-02T09:59:25.639Z,1012.57
2022-10-02T10:00:25.614Z,1012.50
2022-10-02T10:01:25.620Z,1012.66
2022-10-02T10:02:26.043Z,1012.68
2022-10-02T10:03:25.493Z,1012.58
2022-10-02T10:04:33.705Z,1012.60
2022-10-02T10:05:25.427Z,1012.53
2022-10-02T10:06:25.386Z,1012.58
2022-10-02T10:07:25.354Z,1012.57
2022-10-02T10:08:25.317Z,1012.59
2022-10-02T10:09:25.280Z,1012.68
2022-10-02T10:10:25.256Z,1012.58
2022-10-02T10:11:25.206Z,1012.53
2022-10-02T10:12:25.169Z,1012.61
2022-10-02T10:13:25.135Z,1012.60
2022-10-02T10:14:25.096Z,1012.56
2022-10-02T10:15:25.076Z,1012.52
2022-10-02T10:16:25.069Z,1012.50
2022-10-02T10:17:24.988Z,1012.52
2022-10-02T10:18:24.951Z,1012.46
2022-10-02T10:19:24.914Z,1012.53
2022-10-02T10:20:24.879Z,1012.58
2022-10-02T10:21:29.986Z,1012.61
2022-10-02T10:22:24.815Z,1012.67
2022-10-02T10:23:24.769Z,1012.67
2022-10-02T10:24:24.730Z,1012.67
2022-10-02T10:25:24.699Z,1012.69
2022-10-02T10:26:24.657Z,1012.76
2022-10-02T10:27:24.637Z,1012.76
2022-10-02T10:28:24.617Z,1012.78
2022-10-02T10:29:24.548Z,1012.77
2022-10-02T10:30:24.513Z,1012.82
2022-10-02T10:31:24.518Z,1012.89
2022-10-02T10:32:24.439Z,1012.86
2022-10-02T10:33:24.421Z,1012.85
2022-10-02T10:34:24.364Z,1013.00
2022-10-02T10:35:24.341Z,1012.94
2022-10-02T10:36:24.322Z,1012.99
2022-10-02T10:37:24.256Z,1012.91
2022-10-02T10:38:24.212Z,1012.98
2022-10-02T10:39:24.193Z,1013.19
2022-10-02T10:40:24.157Z,1013.13
2022-10-02T10:41:24.106Z,1013.02
2022-10-02T10:42:24.927Z,1012.98
2022-10-02T10:43:24.034Z,1013.00
2022-10-02T10:44:23.997Z,1012.93
2022-10-02T10:45:24.019Z,1012.89
2022-10-02T10:46:23.930Z,1012.87
2022-10-02T10:47:23.888Z,1012.86
2022-10-02T10:48:23.851Z,1012.87
2022-10-02T10:49:23.825Z,1012.98
2022-10-02T10:50:23.792Z,1013.01
2022-10-02T10:51:23.746Z,1012.97
2022-10-02T10:52:23.708Z,1013.14
2022-10-02T10:53:23.674Z,1012.90
2022-10-02T10:54:23.637Z,1012.93
2022-10-02T10:55:23.600Z,1013.07
2022-10-02T10:56:23.578Z,1013.35
2022-10-02T10:57:23.546Z,1013.37
2022-10-02T10:58:23.501Z,1013.40
2022-10-02T10:59:25.439Z,1013.38
2022-10-02T11:00:23.424Z,1013.52
2022-10-02T11:01:23.514Z,1013.55
2022-10-02T11:02:23.422Z,1013.57
2022-10-02T11:03:23.333Z,1013.53
2022-10-02T11:04:23.285Z,1013.42
2022-10-02T11:05:23.263Z,1013.40
2022-10-02T11:06:23.216Z,1013.09
2022-10-02T11:07:23.182Z,1013.13
2022-10-02T11:08:23.155Z,1013.15
2022-10-02T11:09:23.110Z,1013.10
2022-10-02T11:10:23.078Z,1013.19
2022-10-02T11:11:23.044Z,1013.15
2022-10-02T11:12:23.009Z,1013.16
2022-10-02T11:13:22.986Z,1013.20
2022-10-02T11:14:22.939Z,1013.08
2022-10-02T11:15:22.908Z,1013.08
2022-10-02T11:16:22.941Z,1013.08
2022-10-02T11:17:22.844Z,1013.10
2022-10-02T11:18:22.807Z,1013.34
2022-10-02T11:19:22.783Z,1013.17
2022-10-02T11:20:22.733Z,1013.13
2022-10-02T11:21:22.707Z,1013.39
2022-10-02T11:22:22.668Z,1013.51
2022-10-02T11:23:22.635Z,1013.52
2022-10-02T11:24:22.603Z,1013.57
2022-10-02T11:25:22.579Z,1013.37
2022-10-02T11:26:22.528Z,1013.24
2022-10-02T11:27:22.493Z,1013.19
2022-10-02T11:28:22.574Z,1013.16
2022-10-02T11:29:22.429Z,1013.16
2022-10-02T11:30:22.401Z,1013.22
2022-10-02T11:31:22.381Z,1013.26
2022-10-02T11:32:22.318Z,1013.27
2022-10-02T11:33:22.287Z,1013.28
2022-10-02T11:34:22.250Z,1013.31
2022-10-02T11:35:22.219Z,1013.28
2022-10-02T11:36:22.193Z,1013.29
2022-10-02T11:37:22.147Z,1013.30
2022-10-02T11:38:22.118Z,1013.32
2022-10-02T11:39:22.078Z,1013.34
2022-10-02T11:40:22.054Z,1013.31
2022-10-02T11:41:22.007Z,1013.34
2022-10-02T11:42:21.982Z,1013.37
2022-10-02T11:43:21.941Z,1013.47
2022-10-02T11:44:21.900Z,1013.48
2022-10-02T11:45:21.872Z,1013.41
2022-10-02T11:46:21.834Z,1013.54
2022-10-02T11:47:21.807Z,1013.59
2022-10-02T11:48:21.761Z,1013.52
2022-10-02T11:49:21.727Z,1013.54
2022-10-02T11:50:21.694Z,1013.42
2022-10-02T11:51:21.665Z,1013.40
2022-10-02T11:52:21.624Z,1013.49
2022-10-02T11:53:21.603Z,1013.59
2022-10-02T11:54:21.556Z,1013.68
2022-10-02T11:55:21.520Z,1013.61
2022-10-02T11:56:21.483Z,1013.64
2022-10-02T11:57:21.460Z,1013.59
2022-10-02T11:58:21.421Z,1013.52
2022-10-02T11:59:21.391Z,1013.60
2022-10-02T12:00:21.346Z,1013.63
2022-10-02T12:01:21.312Z,1013.68
2022-10-02T12:02:21.381Z,1013.70
2022-10-02T12:03:21.351Z,1013.74
2022-10-02T12:04:21.213Z,1013.72
2022-10-02T12:05:21.193Z,1013.73
2022-10-02T12:06:21.145Z,1013.72
2022-10-02T12:07:21.112Z,1013.69
2022-10-02T12:08:21.077Z,1013.78
2022-10-02T12:09:21.045Z,1013.84
2022-10-02T12:10:21.009Z,1013.57
2022-10-02T12:11:20.989Z,1013.82